Time;durP1;ratioP1;P1;durP2;ratioP2;P2;SDS_P1;SDS_P2;PMS_P1;PMS_P2;Temp;Humidity;BMP_temperature;BMP_pressure;BME280_temperature;BME280_humidity;BME280_pressure;Samples;Min_cycle;Max_cycle;Signal;HPM_P1;HPM_P2
2023/01/17 00:01:28;;;;;;;;;31.00;25.00;25.80;44.70;;;;;;112211;1248;45481;-68
2023/01/17 00:12:11;;;;;;;;;29.00;26.00;25.80;45.20;;;;;;112196;1245;49544;-66
2023/01/17 00:14:37;;;;;;;;;22.25;21.00;25.80;44.60;;;;;;112125;1249;45950;-65
2023/01/17 00:17:05;;;;;;;;;26.00;24.67;25.80;44.60;;;;;;112117;1248;56520;-65
2023/01/17 01:35:32;;;;;;;;;23.75;21.00;25.80;45.70;;;;;;112221;1244;45556;-67
2023/01/17 01:38:01;;;;;;;;;21.00;18.75;25.80;45.60;;;;;;112294;1247;55645;-67
2023/01/17 01:40:28;;;;;;;;;25.00;24.00;25.80;45.60;;;;;;112349;1244;56090;-67
2023/01/17 01:42:57;;;;;;;;;24.50;22.50;25.80;45.50;;;;;;112313;1243;49367;-68
2023/01/17 01:45:27;;;;;;;;;24.67;22.67;25.90;45.70;;;;;;112293;1243;50126;-67
2023/01/17 01:48:06;;;;;;;;;23.75;20.75;25.90;45.30;;;;;;112320;1247;45357;-68
2023/01/17 01:50:35;;;;;;;;;25.50;23.50;25.90;45.30;;;;;;112308;1244;57010;-67
2023/01/17 01:53:02;;;;;;;;;24.00;21.00;25.90;45.30;;;;;;112324;1247;56225;-66
2023/01/17 01:55:32;;;;;;;;;23.00;22.00;25.90;45.10;;;;;;112156;1247;50300;-68
2023/01/17 01:58:05;;;;;;;;;22.00;21.00;25.90;44.90;;;;;;112391;1243;49009;-67
2023/01/17 02:00:35;;;;;;;;;23.00;20.00;25.90;44.70;;;;;;112376;1247;45496;-68
2023/01/17 02:03:26;;;;;;;;;23.50;21.00;26.00;44.90;;;;;;112365;1247;55978;-67
2023/01/17 02:05:53;;;;;;;;;23.33;22.00;26.00;44.60;;;;;;112346;1247;55342;-67
2023/01/17 02:08:21;;;;;;;;;25.00;22.00;26.00;44.40;;;;;;112362;1247;49633;-67
2023/01/17 02:10:50;;;;;;;;;24.00;23.00;26.00;44.40;;;;;;112269;1248;49614;-67
2023/01/17 02:13:19;;;;;;;;;26.75;23.00;25.90;44.30;;;;;;112374;1244;46729;-66
2023/01/17 02:16:01;;;;;;;;;22.75;21.25;25.90;44.30;;;;;;112374;1247;55959;-66
2023/01/17 02:18:48;;;;;;;;;27.67;22.67;25.90;44.30;;;;;;112374;1247;56638;-66
2023/01/17 02:21:18;;;;;;;;;23.25;20.50;25.90;44.40;;;;;;112393;1247;48949;-66
2023/01/17 02:24:12;;;;;;;;;23.67;20.33;25.90;44.30;;;;;;112254;1244;49907;-66
2023/01/17 02:26:52;;;;;;;;;24.00;21.00;25.90;44.20;;;;;;112364;1244;45493;-67
2023/01/17 02:29:41;;;;;;;;;23.00;20.67;25.90;44.20;;;;;;112361;1247;55478;-66
2023/01/17 02:32:27;;;;;;;;;22.33;21.33;25.90;44.30;;;;;;112307;1247;56389;-67
2023/01/17 02:35:01;;;;;;;;;24.25;21.25;25.90;44.10;;;;;;112309;1244;49628;-67
2023/01/17 02:37:54;;;;;;;;;24.67;22.00;25.80;44.10;;;;;;112319;1247;49088;-66
2023/01/17 02:40:44;;;;;;;;;27.67;21.67;25.80;44.20;;;;;;112327;1247;45608;-67
2023/01/17 02:43:13;;;;;;;;;23.33;19.67;25.70;44.10;;;;;;112348;1247;55766;-67
2023/01/17 02:45:40;;;;;;;;;21.33;19.67;25.80;44.10;;;;;;112343;1244;55839;-66
2023/01/17 02:48:09;;;;;;;;;25.00;21.33;25.80;44.00;;;;;;112239;1247;49773;-66
2023/01/17 02:50:39;;;;;;;;;24.67;21.00;25.70;44.10;;;;;;112318;1247;50134;-67
2023/01/17 02:53:25;;;;;;;;;22.25;20.50;25.70;44.10;;;;;;112283;1244;46070;-67
2023/01/17 02:56:32;;;;;;;;;23.75;21.25;25.60;44.10;;;;;;112323;1244;55702;-67
2023/01/17 02:59:02;;;;;;;;;25.67;19.67;25.60;44.10;;;;;;112289;1245;55037;-67
2023/01/17 03:01:29;;;;;;;;;20.25;19.25;25.60;44.10;;;;;;112306;1243;51337;-67
2023/01/17 03:04:06;;;;;;;;;27.50;22.50;25.60;44.00;;;;;;112312;1243;49986;-66
2023/01/17 03:06:42;;;;;;;;;20.67;19.33;25.60;44.00;;;;;;112312;1247;45467;-66
2023/01/17 03:09:09;;;;;;;;;26.00;21.00;25.50;44.00;;;;;;112368;1247;56189;-68
2023/01/17 03:11:36;;;;;;;;;28.00;24.67;25.50;44.10;;;;;;112259;1247;56121;-69
2023/01/17 03:14:03;;;;;;;;;21.00;19.00;25.50;44.10;;;;;;112264;1244;49922;-68
2023/01/17 03:16:32;;;;;;;;;20.00;19.00;25.50;44.10;;;;;;112327;1244;48986;-67
2023/01/17 03:18:59;;;;;;;;;25.00;23.00;25.50;44.10;;;;;;112217;1248;46759;-67
2023/01/17 03:21:26;;;;;;;;;25.25;22.75;25.50;44.10;;;;;;112306;1247;56944;-67
2023/01/17 03:23:53;;;;;;;;;27.00;22.50;25.40;44.00;;;;;;112319;1243;56395;-67
2023/01/17 03:26:20;;;;;;;;;22.00;20.50;25.40;44.10;;;;;;112357;1247;50402;-67
2023/01/17 03:28:47;;;;;;;;;23.50;20.00;25.40;44.10;;;;;;112325;1247;48875;-67
2023/01/17 03:31:18;;;;;;;;;24.67;21.33;25.40;44.10;;;;;;112355;1247;46342;-67
2023/01/17 03:33:45;;;;;;;;;22.00;20.33;25.30;44.10;;;;;;112369;1247;55854;-67
2023/01/17 03:36:12;;;;;;;;;23.00;22.00;25.30;44.10;;;;;;112300;1244;55289;-66
2023/01/17 03:38:39;;;;;;;;;23.50;20.75;25.30;44.30;;;;;;112296;1243;49315;-66
2023/01/17 03:41:06;;;;;;;;;28.75;24.00;25.30;44.10;;;;;;112282;1244;48884;-66
2023/01/17 03:43:33;;;;;;;;;25.50;21.75;25.30;44.00;;;;;;112290;1244;46063;-66
2023/01/17 03:46:19;;;;;;;;;23.00;20.00;25.20;44.00;;;;;;112335;1247;56256;-67
2023/01/17 03:48:46;;;;;;;;;28.33;23.00;25.20;44.00;;;;;;112298;1247;56228;-67
2023/01/17 03:51:13;;;;;;;;;21.50;20.00;25.20;44.00;;;;;;112293;1247;49854;-67
2023/01/17 03:53:41;;;;;;;;;22.00;18.00;25.20;43.80;;;;;;112268;1244;48714;-67
2023/01/17 03:56:08;;;;;;;;;21.67;18.67;25.20;43.90;;;;;;112305;1247;46042;-66
2023/01/17 03:58:35;;;;;;;;;23.00;21.75;25.20;43.80;;;;;;112316;1247;57400;-66
2023/01/17 04:01:02;;;;;;;;;26.00;23.00;25.30;44.10;;;;;;112283;1243;55940;-66
2023/01/17 04:03:29;;;;;;;;;21.00;18.75;25.30;44.60;;;;;;112315;1243;48950;-66
2023/01/17 04:05:56;;;;;;;;;25.00;21.25;25.30;44.20;;;;;;112286;1247;49386;-66
2023/01/17 04:08:23;;;;;;;;;21.67;18.33;25.30;44.20;;;;;;112220;1248;45534;-66
2023/01/17 04:10:50;;;;;;;;;23.33;22.33;25.40;44.30;;;;;;112305;1243;56266;-66
2023/01/17 04:13:17;;;;;;;;;22.00;20.67;25.50;44.30;;;;;;112269;1244;57024;-66
2023/01/17 04:15:44;;;;;;;;;23.50;19.50;25.50;44.30;;;;;;112317;1247;49889;-66
2023/01/17 04:18:12;;;;;;;;;21.75;19.00;25.50;44.20;;;;;;112333;1244;49071;-67
2023/01/17 04:20:39;;;;;;;;;23.00;20.00;25.50;44.20;;;;;;112303;1243;45458;-66
2023/01/17 04:23:06;;;;;;;;;22.50;20.00;25.50;44.30;;;;;;112297;1243;56226;-65
2023/01/17 04:25:34;;;;;;;;;21.25;20.00;25.50;44.00;;;;;;112269;1245;56077;-65
2023/01/17 04:28:02;;;;;;;;;21.00;18.33;25.50;44.00;;;;;;112285;1247;49294;-65
2023/01/17 04:30:30;;;;;;;;;19.75;18.25;25.50;44.00;;;;;;112301;1247;49452;-67
2023/01/17 04:32:57;;;;;;;;;22.00;19.33;25.50;44.00;;;;;;112324;1247;45422;-68
2023/01/17 04:35:25;;;;;;;;;21.75;17.50;25.50;43.90;;;;;;112193;1248;56915;-67
2023/01/17 04:37:52;;;;;;;;;21.00;19.75;25.60;43.80;;;;;;112267;1247;55512;-67
2023/01/17 04:40:18;;;;;;;;;22.00;19.00;25.50;43.50;;;;;;112179;1244;50118;-66
2023/01/17 04:42:46;;;;;;;;;22.00;19.00;25.50;43.40;;;;;;112304;1247;49388;-67
2023/01/17 04:45:14;;;;;;;;;19.00;16.25;25.60;43.30;;;;;;112219;1245;46073;-67
2023/01/17 04:47:41;;;;;;;;;19.50;18.00;25.50;43.30;;;;;;112101;1247;57279;-66
2023/01/17 04:50:09;;;;;;;;;19.00;17.00;25.50;43.30;;;;;;112289;1247;57509;-70
2023/01/17 04:52:36;;;;;;;;;17.00;16.00;25.50;43.60;;;;;;112094;1247;49054;-74
2023/01/17 04:55:04;;;;;;;;;22.25;19.00;25.50;43.90;;;;;;112195;1248;49208;-75
2023/01/17 04:57:31;;;;;;;;;19.00;17.67;25.50;43.20;;;;;;112182;1249;46749;-77
2023/01/17 04:59:58;;;;;;;;;19.00;14.50;25.50;42.80;;;;;;112183;1248;56067;-73
2023/01/17 05:02:25;;;;;;;;;17.00;15.50;25.50;42.70;;;;;;112159;1249;56857;-71
2023/01/17 05:04:52;;;;;;;;;15.33;14.00;25.50;42.20;;;;;;112168;1248;49062;-71
2023/01/17 05:07:19;;;;;;;;;19.67;17.00;25.50;42.40;;;;;;112162;1244;50268;-70
2023/01/17 05:09:46;;;;;;;;;17.00;13.00;25.50;42.60;;;;;;112191;1248;46148;-71
2023/01/17 05:12:13;;;;;;;;;17.50;13.00;25.50;42.80;;;;;;112102;1249;56804;-73
2023/01/17 05:14:40;;;;;;;;;16.50;14.50;25.50;43.10;;;;;;112179;1250;55879;-68
2023/01/17 05:17:09;;;;;;;;;16.00;14.75;25.50;43.10;;;;;;112175;1248;49185;-68
2023/01/17 05:19:36;;;;;;;;;17.00;14.00;25.60;42.70;;;;;;112156;1248;51173;-67
2023/01/17 05:22:13;;;;;;;;;15.00;14.00;25.60;42.40;;;;;;112102;1250;45895;-68
2023/01/17 05:24:42;;;;;;;;;14.00;13.00;25.60;42.50;;;;;;112201;1248;57384;-67
2023/01/17 05:27:10;;;;;;;;;15.00;14.00;25.60;42.00;;;;;;112180;1248;56011;-70
2023/01/17 05:29:37;;;;;;;;;14.75;13.25;25.60;41.20;;;;;;112171;1248;49608;-69
2023/01/17 05:32:04;;;;;;;;;18.25;15.75;25.60;40.80;;;;;;112189;1244;49197;-70
2023/01/17 05:34:32;;;;;;;;;16.00;13.00;25.60;41.10;;;;;;112197;1248;46038;-69
2023/01/17 05:36:59;;;;;;;;;15.00;14.00;25.60;41.70;;;;;;112245;1247;55935;-67
2023/01/17 05:39:26;;;;;;;;;18.00;16.00;25.60;41.80;;;;;;112322;1247;55509;-71
2023/01/17 05:41:52;;;;;;;;;13.00;11.00;25.60;41.90;;;;;;112270;1247;49480;-71
2023/01/17 05:44:19;;;;;;;;;12.25;11.00;25.60;42.10;;;;;;112269;1247;49511;-70
2023/01/17 05:46:46;;;;;;;;;16.67;12.00;25.60;42.20;;;;;;112276;1247;46778;-63
2023/01/17 05:49:13;;;;;;;;;19.67;16.33;25.60;42.90;;;;;;112295;1243;56540;-65
2023/01/17 05:51:40;;;;;;;;;22.00;17.67;25.60;43.20;;;;;;112085;1246;55961;-66
2023/01/17 05:54:07;;;;;;;;;19.33;17.00;25.60;42.90;;;;;;112257;1247;50371;-63
2023/01/17 05:56:33;;;;;;;;;38.00;30.50;25.60;42.60;;;;;;112472;1249;49546;-74
2023/01/17 05:59:00;;;;;;;;;38.25;23.75;25.70;42.80;;;;;;112309;1247;45754;-66
2023/01/17 06:01:27;;;;;;;;;33.75;24.00;25.70;42.80;;;;;;112158;1246;55847;-67
2023/01/17 06:03:54;;;;;;;;;42.67;27.33;25.80;42.90;;;;;;112188;1247;55608;-61
2023/01/17 06:06:21;;;;;;;;;38.00;24.67;25.80;43.00;;;;;;112222;1244;50353;-63
2023/01/17 06:08:48;;;;;;;;;28.75;21.50;25.80;43.00;;;;;;112195;1247;48950;-62
2023/01/17 06:11:15;;;;;;;;;39.00;27.00;25.80;42.90;;;;;;112166;1248;46148;-64
2023/01/17 06:13:42;;;;;;;;;30.00;22.75;25.80;42.40;;;;;;112207;1247;57304;-63
2023/01/17 06:16:09;;;;;;;;;41.25;26.50;25.80;42.80;;;;;;112228;1244;56558;-72
2023/01/17 06:18:36;;;;;;;;;42.50;26.00;25.80;43.00;;;;;;112206;1247;49669;-69
2023/01/17 06:21:03;;;;;;;;;39.00;25.50;25.80;43.00;;;;;;112206;1247;49639;-70
2023/01/17 06:23:29;;;;;;;;;40.25;31.00;25.80;43.10;;;;;;112246;1247;46420;-74
2023/01/17 06:25:56;;;;;;;;;40.75;28.75;25.80;43.10;;;;;;112246;1247;55889;-71
2023/01/17 06:28:23;;;;;;;;;38.00;29.00;25.80;43.00;;;;;;112141;1246;56068;-70
2023/01/17 06:30:50;;;;;;;;;47.33;30.67;25.80;43.00;;;;;;112216;1247;48895;-75
2023/01/17 06:33:17;;;;;;;;;39.33;30.67;25.80;43.00;;;;;;112210;1244;49754;-72
2023/01/17 06:35:51;;;;;;;;;36.25;26.75;25.90;43.00;;;;;;112209;1247;46022;-72
2023/01/17 06:38:18;;;;;;;;;44.00;30.00;25.90;43.00;;;;;;112205;1247;56594;-70
2023/01/17 06:40:45;;;;;;;;;36.00;28.67;25.90;43.00;;;;;;112232;1247;56948;-71
2023/01/17 06:43:11;;;;;;;;;40.00;26.00;25.90;43.00;;;;;;112236;1247;49091;-71
2023/01/17 06:45:38;;;;;;;;;39.33;30.33;25.90;42.90;;;;;;112183;1247;49109;-70
2023/01/17 06:48:06;;;;;;;;;48.00;29.50;25.90;42.80;;;;;;112231;1244;46427;-73
2023/01/17 06:50:33;;;;;;;;;36.67;29.67;25.90;42.90;;;;;;112183;1243;57565;-72
2023/01/17 06:53:02;;;;;;;;;47.33;33.67;25.90;42.90;;;;;;112198;1244;55676;-62
2023/01/17 06:55:32;;;;;;;;;36.67;24.67;25.90;42.90;;;;;;112219;1244;49364;-64
2023/01/17 06:58:01;;;;;;;;;25.00;23.00;25.90;41.90;;;;;;112276;1244;49957;-64
2023/01/17 07:00:29;;;;;;;;;22.50;18.50;25.70;36.00;;;;;;112219;1244;45895;-63
2023/01/17 07:02:56;;;;;;;;;32.25;25.00;25.50;33.70;;;;;;112238;1244;57188;-64
2023/01/17 07:05:23;;;;;;;;;21.00;20.00;25.10;33.30;;;;;;112269;1248;55619;-64
2023/01/17 07:07:50;;;;;;;;;26.75;23.50;24.80;33.30;;;;;;112150;1248;48960;-63
2023/01/17 07:10:17;;;;;;;;;22.75;21.25;24.50;33.00;;;;;;112245;1247;49162;-63
2023/01/17 07:12:44;;;;;;;;;27.00;23.67;24.20;32.70;;;;;;112274;1244;46407;-63
2023/01/17 07:15:11;;;;;;;;;25.50;23.75;24.00;33.00;;;;;;112229;1244;55956;-63
2023/01/17 07:17:39;;;;;;;;;25.00;23.00;23.80;33.10;;;;;;112229;1248;56195;-63
2023/01/17 07:20:07;;;;;;;;;25.00;23.25;23.60;33.60;;;;;;112150;1249;48908;-62
2023/01/17 07:22:35;;;;;;;;;26.67;22.67;23.40;33.60;;;;;;112236;1248;49108;-63
2023/01/17 07:25:03;;;;;;;;;25.00;20.00;23.30;33.70;;;;;;112177;1248;45561;-63
2023/01/17 07:27:32;;;;;;;;;24.00;19.75;23.10;33.50;;;;;;112217;1249;55500;-65
2023/01/17 07:29:59;;;;;;;;;18.67;17.00;23.00;34.70;;;;;;112183;1244;55797;-68
2023/01/17 07:32:27;;;;;;;;;19.00;17.50;23.00;35.50;;;;;;112148;1247;49701;-70
2023/01/17 07:34:56;;;;;;;;;22.00;17.00;22.90;36.00;;;;;;112179;1248;49139;-75
2023/01/17 07:37:25;;;;;;;;;18.50;16.75;23.00;36.70;;;;;;112153;1244;46333;-66
2023/01/17 07:39:53;;;;;;;;;21.00;17.75;23.10;37.10;;;;;;112222;1244;55733;-63
2023/01/17 07:42:20;;;;;;;;;16.33;15.00;23.20;37.80;;;;;;112156;1244;56482;-62
2023/01/17 07:44:47;;;;;;;;;20.75;17.75;23.30;37.90;;;;;;112156;1247;49777;-62
2023/01/17 07:47:14;;;;;;;;;21.25;20.00;23.40;38.10;;;;;;112166;1244;49733;-72
2023/01/17 07:49:41;;;;;;;;;22.33;17.67;23.50;38.50;;;;;;112176;1249;45526;-66
2023/01/17 07:52:08;;;;;;;;;19.75;18.00;23.60;38.60;;;;;;112325;1244;56851;-67
2023/01/17 07:54:35;;;;;;;;;19.50;18.00;23.70;38.80;;;;;;112318;1247;56695;-67
2023/01/17 07:57:02;;;;;;;;;22.33;21.00;23.80;38.90;;;;;;112183;1245;50425;-67
2023/01/17 07:59:32;;;;;;;;;21.50;18.50;23.90;39.10;;;;;;112315;1247;49602;-67
2023/01/17 08:01:59;;;;;;;;;22.00;18.00;23.90;39.10;;;;;;112318;1244;45808;-66
2023/01/17 08:04:27;;;;;;;;;18.00;16.00;24.00;39.20;;;;;;112275;1247;57124;-67
2023/01/17 08:06:54;;;;;;;;;19.50;18.00;24.00;39.10;;;;;;112328;1244;55752;-67
2023/01/17 08:09:21;;;;;;;;;22.00;19.33;24.10;39.20;;;;;;112299;1247;49917;-72
2023/01/17 08:11:48;;;;;;;;;21.50;18.75;24.10;38.90;;;;;;112281;1243;50292;-70
2023/01/17 08:14:17;;;;;;;;;18.50;17.50;24.20;39.10;;;;;;112327;1247;46550;-70
2023/01/17 08:16:44;;;;;;;;;19.00;17.50;24.20;39.30;;;;;;112308;1244;56536;-66
2023/01/17 08:19:11;;;;;;;;;22.25;16.25;24.30;39.60;;;;;;112284;1243;55873;-64
2023/01/17 08:21:38;;;;;;;;;18.00;16.33;24.30;39.70;;;;;;112313;1247;49511;-68
2023/01/17 08:24:05;;;;;;;;;19.00;17.50;24.40;39.90;;;;;;112270;1244;49839;-64
2023/01/17 08:26:32;;;;;;;;;16.00;14.50;24.40;39.90;;;;;;112335;1247;45225;-65
2023/01/17 08:29:00;;;;;;;;;20.00;15.67;24.50;39.90;;;;;;112301;1247;55904;-67
2023/01/17 08:31:29;;;;;;;;;16.00;14.33;24.60;40.10;;;;;;112323;1247;55917;-63
2023/01/17 08:33:56;;;;;;;;;15.00;14.00;24.60;40.00;;;;;;112304;1247;49711;-67
2023/01/17 08:36:27;;;;;;;;;17.00;15.00;24.60;39.70;;;;;;112300;1247;49057;-66
2023/01/17 08:38:54;;;;;;;;;16.00;14.67;24.60;39.60;;;;;;112259;1243;46011;-68
2023/01/17 08:41:23;;;;;;;;;17.75;16.50;24.70;39.00;;;;;;112329;1247;56044;-59
2023/01/17 08:43:51;;;;;;;;;15.00;12.00;24.60;39.20;;;;;;112325;1247;55788;-58
2023/01/17 08:46:18;;;;;;;;;16.00;14.00;24.60;39.40;;;;;;112345;1247;49900;-60
2023/01/17 08:48:45;;;;;;;;;14.67;13.33;24.70;39.10;;;;;;112292;1243;49904;-64
2023/01/17 08:51:12;;;;;;;;;15.33;14.00;24.60;38.80;;;;;;112308;1245;45971;-62
2023/01/17 08:53:39;;;;;;;;;15.00;14.00;24.60;38.90;;;;;;112314;1247;56178;-63
2023/01/17 08:56:06;;;;;;;;;15.67;14.00;24.60;39.10;;;;;;112304;1244;56084;-76
2023/01/17 08:58:34;;;;;;;;;15.00;13.75;24.60;39.10;;;;;;112279;1247;49420;-75
2023/01/17 09:01:03;;;;;;;;;15.25;13.50;24.60;39.10;;;;;;112296;1245;49124;-66
2023/01/17 09:03:31;;;;;;;;;19.00;15.00;24.60;39.20;;;;;;112302;1247;45887;-65
2023/01/17 09:06:07;;;;;;;;;14.00;12.75;24.60;39.30;;;;;;112294;1247;55693;-66
2023/01/17 09:08:34;;;;;;;;;15.25;11.50;24.60;39.50;;;;;;112298;1247;55979;-65
2023/01/17 09:11:06;;;;;;;;;15.75;13.75;24.70;39.50;;;;;;112316;1247;49547;-64
2023/01/17 09:13:33;;;;;;;;;14.75;12.25;24.70;39.60;;;;;;112324;1247;49142;-64
2023/01/17 09:16:00;;;;;;;;;14.50;11.75;24.80;39.60;;;;;;112330;1247;45389;-65
2023/01/17 09:18:28;;;;;;;;;13.00;12.00;24.80;39.40;;;;;;112330;1243;55563;-69
2023/01/17 09:20:58;;;;;;;;;14.00;11.50;24.90;39.40;;;;;;112331;1244;56186;-63
2023/01/17 09:23:26;;;;;;;;;12.00;9.00;24.90;39.50;;;;;;112302;1243;50126;-67
2023/01/17 09:25:55;;;;;;;;;11.67;10.67;25.00;39.50;;;;;;112327;1243;49582;-65
2023/01/17 09:28:23;;;;;;;;;11.75;10.00;25.10;39.40;;;;;;112345;1247;45244;-63
2023/01/17 09:30:51;;;;;;;;;11.67;10.00;25.10;39.20;;;;;;112387;1247;56969;-70
2023/01/17 09:33:18;;;;;;;;;11.67;9.67;25.10;39.20;;;;;;112313;1247;56159;-66
2023/01/17 09:35:46;;;;;;;;;11.00;10.00;25.20;39.20;;;;;;112268;1247;49855;-69
2023/01/17 09:38:13;;;;;;;;;11.00;10.00;25.20;39.10;;;;;;112195;1245;49382;-71
2023/01/17 09:40:47;;;;;;;;;11.00;9.00;25.30;39.00;;;;;;112291;1244;45525;-66
2023/01/17 09:43:29;;;;;;;;;11.00;9.67;25.30;39.30;;;;;;112336;1245;56404;-64
2023/01/17 09:45:58;;;;;;;;;11.50;8.50;25.30;39.20;;;;;;112289;1247;56900;-69
2023/01/17 09:48:36;;;;;;;;;11.75;10.50;25.30;39.30;;;;;;111760;1249;50751;-66
2023/01/17 09:51:18;;;;;;;;;10.00;9.00;25.40;39.60;;;;;;112169;1248;49201;-68
2023/01/17 09:53:46;;;;;;;;;11.00;10.00;25.40;39.60;;;;;;112260;1247;45588;-68
2023/01/17 09:56:16;;;;;;;;;9.25;8.00;25.50;39.70;;;;;;112289;1247;56538;-67
2023/01/17 09:58:55;;;;;;;;;10.67;9.00;25.50;39.70;;;;;;112250;1247;56922;-63
2023/01/17 10:01:45;;;;;;;;;9.67;8.67;25.60;39.80;;;;;;112169;1244;49293;-63
2023/01/17 10:04:26;;;;;;;;;11.00;9.00;25.50;40.40;;;;;;112092;1249;49069;-62
2023/01/17 10:07:14;;;;;;;;;10.00;8.00;25.60;39.90;;;;;;112188;1248;45136;-61
2023/01/17 10:09:52;;;;;;;;;11.00;10.00;25.60;39.70;;;;;;112188;1248;56185;-73
2023/01/17 10:12:19;;;;;;;;;11.75;10.75;25.60;39.20;;;;;;112164;1244;56133;-64
2023/01/17 10:15:21;;;;;;;;;11.25;10.25;25.50;39.10;;;;;;112178;1244;49800;-68
2023/01/17 10:18:00;;;;;;;;;10.00;8.00;25.50;39.30;;;;;;112123;1248;49269;-73
2023/01/17 10:20:49;;;;;;;;;10.33;9.00;25.50;38.80;;;;;;112196;1247;45400;-72
2023/01/17 10:23:49;;;;;;;;;12.00;10.00;25.50;38.90;;;;;;112213;1244;56542;-74
2023/01/17 10:26:35;;;;;;;;;10.67;9.67;25.50;38.90;;;;;;112201;1245;55498;-73
2023/01/17 10:29:04;;;;;;;;;10.25;9.00;25.50;39.00;;;;;;112108;1250;49453;-71
2023/01/17 10:31:40;;;;;;;;;10.50;9.00;25.50;39.20;;;;;;112108;1249;49600;-68
2023/01/17 10:34:44;;;;;;;;;12.75;10.75;25.50;39.20;;;;;;112180;1248;45843;-68
2023/01/17 10:37:22;;;;;;;;;12.00;11.00;25.50;39.30;;;;;;111943;1247;56295;-62
2023/01/17 10:39:49;;;;;;;;;13.00;11.00;25.50;39.30;;;;;;112022;1247;56425;-65
2023/01/17 10:42:31;;;;;;;;;13.00;11.00;25.50;39.40;;;;;;112178;1248;49926;-65
2023/01/17 10:45:04;;;;;;;;;11.33;10.33;25.50;39.40;;;;;;112204;1244;49099;-66
2023/01/17 10:47:34;;;;;;;;;10.00;9.00;25.50;39.50;;;;;;112147;1244;45485;-68
2023/01/17 10:50:03;;;;;;;;;11.50;9.50;25.50;39.60;;;;;;112252;1247;56128;-69
2023/01/17 10:52:37;;;;;;;;;11.00;9.33;25.50;39.70;;;;;;112217;1247;55503;-60
2023/01/17 10:55:11;;;;;;;;;13.00;11.75;25.50;39.80;;;;;;112217;1244;49866;-60
2023/01/17 10:57:47;;;;;;;;;11.00;9.50;25.50;41.10;;;;;;112227;1247;49306;-60
2023/01/17 11:00:38;;;;;;;;;11.00;10.00;25.60;40.40;;;;;;112248;1248;45514;-61
2023/01/17 11:03:06;;;;;;;;;10.75;9.75;25.70;40.20;;;;;;112211;1244;56459;-60
2023/01/17 11:05:33;;;;;;;;;10.00;9.00;25.70;40.10;;;;;;112115;1244;56061;-60
2023/01/17 11:08:06;;;;;;;;;13.50;12.50;25.80;40.10;;;;;;112139;1244;49202;-60
2023/01/17 11:10:43;;;;;;;;;11.75;10.00;25.80;40.10;;;;;;112219;1244;49251;-60
2023/01/17 11:13:35;;;;;;;;;12.75;11.00;25.80;40.00;;;;;;112202;1244;45579;-60
2023/01/17 11:16:22;;;;;;;;;12.00;10.67;25.90;40.10;;;;;;112148;1247;56512;-60
2023/01/17 11:19:28;;;;;;;;;11.00;9.00;25.90;40.00;;;;;;112190;1247;56959;-61
2023/01/17 11:22:00;;;;;;;;;14.00;11.00;26.00;40.00;;;;;;112210;1247;49287;-61
2023/01/17 11:24:38;;;;;;;;;11.67;10.00;26.00;39.90;;;;;;112143;1244;49040;-60
2023/01/17 11:27:06;;;;;;;;;12.00;10.75;26.00;39.90;;;;;;112223;1244;45914;-60
2023/01/17 11:29:36;;;;;;;;;13.00;12.00;26.00;39.90;;;;;;112194;1248;56147;-61
2023/01/17 11:32:21;;;;;;;;;13.00;11.00;26.00;39.90;;;;;;112243;1248;56208;-61
2023/01/17 11:35:08;;;;;;;;;13.75;12.00;26.00;40.00;;;;;;112187;1247;49149;-60
2023/01/17 11:37:36;;;;;;;;;13.00;12.00;26.10;39.90;;;;;;112167;1248;49825;-60
2023/01/17 11:40:22;;;;;;;;;10.75;9.75;26.10;39.90;;;;;;112220;1247;45605;-60
2023/01/17 11:43:01;;;;;;;;;11.75;10.75;26.10;40.10;;;;;;112195;1247;55791;-61
2023/01/17 11:45:32;;;;;;;;;12.00;10.00;26.20;40.20;;;;;;112195;1247;55426;-68
2023/01/17 13:11:06;;;;;;;;;15.75;14.00;23.80;43.80;;;;;;109673;1267;35990;-60
2023/01/17 13:13:34;;;;;;;;;11.00;10.00;25.50;42.10;;;;;;111832;1249;141548;-64
2023/01/17 13:16:04;;;;;;;;;11.00;9.00;25.60;42.00;;;;;;112111;1248;54638;-59
2023/01/17 13:18:32;;;;;;;;;11.00;10.00;25.70;41.70;;;;;;112120;1245;56540;-62
2023/01/17 13:21:04;;;;;;;;;13.00;11.75;25.70;41.50;;;;;;111916;1250;50403;-62
2023/01/17 13:23:54;;;;;;;;;11.00;10.00;25.80;41.50;;;;;;112094;1244;48729;-61
2023/01/17 13:26:27;;;;;;;;;11.75;10.25;25.80;41.40;;;;;;112096;1248;45970;-60
2023/01/17 13:29:08;;;;;;;;;11.75;10.50;25.80;40.90;;;;;;112113;1249;55482;-61
2023/01/17 13:31:41;;;;;;;;;11.00;9.50;25.80;40.70;;;;;;112040;1250;55537;-61
2023/01/17 13:34:19;;;;;;;;;12.00;11.00;25.70;40.20;;;;;;112118;1244;49153;-61
2023/01/17 13:36:56;;;;;;;;;14.00;11.25;25.70;40.00;;;;;;112089;1249;49069;-60
2023/01/17 13:39:46;;;;;;;;;14.75;13.50;25.70;39.90;;;;;;112146;1248;44821;-64
2023/01/17 13:42:26;;;;;;;;;12.25;11.00;25.70;39.90;;;;;;111993;1246;56206;-64
2023/01/17 13:44:54;;;;;;;;;12.00;11.00;25.70;40.20;;;;;;111985;1246;56739;-62
2023/01/17 13:47:24;;;;;;;;;14.25;11.00;25.60;40.40;;;;;;112030;1248;49271;-64
2023/01/17 13:49:58;;;;;;;;;11.00;9.33;25.70;40.60;;;;;;112086;1249;49689;-64
2023/01/17 13:52:25;;;;;;;;;14.75;12.00;25.70;40.80;;;;;;112142;1244;45078;-71
2023/01/17 13:54:56;;;;;;;;;12.25;10.75;25.70;41.40;;;;;;112095;1244;55147;-66
2023/01/17 13:57:28;;;;;;;;;12.00;11.00;25.70;41.40;;;;;;112069;1249;57062;-65
2023/01/17 13:59:56;;;;;;;;;12.25;11.00;25.70;41.20;;;;;;112760;1243;50138;-67
2023/01/17 14:02:37;;;;;;;;;13.75;10.25;25.70;41.30;;;;;;112682;1244;48988;-67
2023/01/17 14:05:07;;;;;;;;;11.00;10.00;25.70;41.30;;;;;;112526;1241;44619;-65
2023/01/17 14:07:42;;;;;;;;;12.00;10.25;25.70;41.30;;;;;;112806;1240;55364;-67
2023/01/17 14:10:38;;;;;;;;;10.00;9.00;25.70;41.30;;;;;;112753;1244;56476;-66
2023/01/17 14:13:24;;;;;;;;;12.75;11.00;25.70;41.30;;;;;;112766;1244;49809;-68
2023/01/17 14:15:51;;;;;;;;;12.00;10.25;25.70;41.40;;;;;;112721;1244;49777;-69
2023/01/17 14:18:37;;;;;;;;;11.25;10.00;25.70;41.60;;;;;;112760;1240;45295;-68
2023/01/17 14:21:30;;;;;;;;;10.00;9.25;25.70;41.70;;;;;;112448;1241;56061;-69
2023/01/17 14:24:05;;;;;;;;;12.00;9.50;25.70;41.70;;;;;;112439;1244;55945;-69
2023/01/17 14:26:36;;;;;;;;;13.00;11.00;25.70;41.80;;;;;;112741;1244;49136;-68
2023/01/17 14:29:41;;;;;;;;;12.25;10.75;25.60;41.80;;;;;;112722;1244;48571;-68
2023/01/17 14:32:11;;;;;;;;;13.25;9.75;25.60;41.90;;;;;;112743;1244;44639;-68
2023/01/17 14:34:38;;;;;;;;;12.00;10.33;25.60;41.90;;;;;;112645;1241;55691;-69
2023/01/17 14:37:16;;;;;;;;;11.75;10.00;25.70;42.00;;;;;;112766;1244;56141;-65
2023/01/17 14:39:48;;;;;;;;;12.75;10.50;25.60;41.90;;;;;;112754;1244;49174;-66
2023/01/17 14:42:28;;;;;;;;;12.75;11.50;25.60;42.20;;;;;;112720;1243;50120;-72
2023/01/17 14:45:02;;;;;;;;;12.50;9.75;25.60;42.10;;;;;;112736;1243;44477;-65
2023/01/17 14:47:31;;;;;;;;;12.25;10.75;25.60;42.40;;;;;;112781;1244;55599;-67
2023/01/17 14:50:16;;;;;;;;;13.25;10.75;25.50;42.60;;;;;;112775;1244;55776;-67
2023/01/17 14:52:46;;;;;;;;;14.00;11.00;25.60;43.70;;;;;;112765;1244;50339;-69
2023/01/17 14:55:19;;;;;;;;;12.00;11.00;25.50;43.80;;;;;;112729;1240;50179;-72
2023/01/17 14:57:53;;;;;;;;;13.00;12.00;25.50;44.10;;;;;;112767;1244;44312;-72
2023/01/17 15:00:22;;;;;;;;;13.75;10.25;25.50;44.20;;;;;;112768;1244;55262;-68
2023/01/17 15:02:49;;;;;;;;;15.25;13.00;25.50;44.40;;;;;;112434;1246;55483;-69
2023/01/17 15:05:19;;;;;;;;;14.50;11.50;25.40;44.50;;;;;;112810;1243;48852;-67
2023/01/17 15:07:51;;;;;;;;;11.25;10.00;25.40;44.60;;;;;;112492;1244;49041;-64
2023/01/17 15:10:22;;;;;;;;;10.75;8.75;25.40;44.80;;;;;;112782;1243;45013;-66
2023/01/17 15:12:51;;;;;;;;;10.00;8.75;25.30;40.50;;;;;;112806;1244;55571;-66
2023/01/17 15:15:30;;;;;;;;;12.00;10.50;25.20;37.00;;;;;;112743;1244;55948;-66
2023/01/17 15:18:13;;;;;;;;;10.00;9.00;25.10;35.80;;;;;;112539;1240;49747;-68
2023/01/17 15:20:41;;;;;;;;;11.00;9.00;24.90;35.20;;;;;;112742;1240;50862;-72
2023/01/17 15:23:14;;;;;;;;;14.00;10.00;24.60;36.60;;;;;;112741;1244;44804;-67
2023/01/17 15:25:41;;;;;;;;;11.25;10.00;24.50;38.80;;;;;;112483;1246;56329;-67
2023/01/17 15:28:11;;;;;;;;;12.75;11.50;24.40;39.60;;;;;;112676;1243;55715;-67